Time,TemperatureF,DewpointF,PressureIn,WindDirection,WindDirectionDegrees,WindSpeedMPH,WindSpeedGustMPH,Humidity,HourlyPrecipIn,Conditions,Clouds,dailyrainin,SoftwareType,DateUTC
2013-03-07 00:00:00,46.9,35.7,30.10,WNW,293,0.0,0.0,65,0.00,,,0.00,WUHU216HW,2013-03-07 05:00:00,
2013-03-07 00:01:00,46.9,35.7,30.10,WNW,293,0.0,0.0,65,0.00,,,0.00,WUHU216HW,2013-03-07 05:01:00,
2013-03-07 00:06:00,46.9,36.1,30.10,WNW,293,0.0,0.0,66,0.00,,,0.00,WUHU216HW,2013-03-07 05:06:00,
2013-03-07 00:11:00,47.1,36.3,30.10,WNW,293,0.0,0.0,66,0.00,,,0.00,WUHU216HW,2013-03-07 05:11:00,
2013-03-07 00:16:00,47.1,36.3,30.10,WNW,293,0.0,0.0,66,0.00,,,0.00,WUHU216HW,2013-03-07 05:16:00,
2013-03-07 00:21:00,47.3,36.4,30.10,WNW,293,0.0,0.0,66,0.00,,,0.00,WUHU216HW,2013-03-07 05:21:00,
2013-03-07 00:26:00,47.3,36.4,30.10,WNW,293,0.0,0.0,66,0.00,,,0.00,WUHU216HW,2013-03-07 05:26:00,
2013-03-07 00:31:00,47.4,36.6,30.09,WNW,293,0.0,0.0,66,0.00,,,0.00,WUHU216HW,2013-03-07 05:31:00,
2013-03-07 00:36:00,47.4,36.6,30.10,WNW,293,0.0,0.0,66,0.00,,,0.00,WUHU216HW,2013-03-07 05:36:00,
2013-03-07 00:41:00,47.4,36.6,30.09,WNW,293,0.0,0.0,66,0.00,,,0.00,WUHU216HW,2013-03-07 05:41:00,
2013-03-07 00:46:00,47.3,36.4,30.09,WNW,293,0.0,0.0,66,0.00,,,0.00,WUHU216HW,2013-03-07 05:46:00,
2013-03-07 00:51:00,47.1,36.3,30.09,WNW,293,0.0,0.0,66,0.00,,,0.00,WUHU216HW,2013-03-07 05:51:00,
2013-03-07 00:56:00,47.1,36.3,30.09,WNW,293,0.0,0.0,66,0.00,,,0.00,WUHU216HW,2013-03-07 05:56:00,
2013-03-07 01:01:00,46.9,36.1,30.09,WNW,293,0.0,0.0,66,0.00,,,0.00,WUHU216HW,2013-03-07 06:01:00,
2013-03-07 01:06:00,46.9,36.1,30.09,WNW,293,0.0,0.0,66,0.00,,,0.00,WUHU216HW,2013-03-07 06:06:00,
2013-03-07 01:11:00,46.5,35.7,30.09,WNW,293,0.0,0.0,66,0.00,,,0.00,WUHU216HW,2013-03-07 06:11:00,
2013-03-07 01:16:00,46.5,35.7,30.09,WNW,293,0.0,0.0,66,0.00,,,0.00,WUHU216HW,2013-03-07 06:16:00,
2013-03-07 01:21:00,46.2,35.4,30.09,WNW,293,0.0,0.0,66,0.00,,,0.00,WUHU216HW,2013-03-07 06:21:00,
2013-03-07 01:26:00,46.0,35.2,30.09,WNW,293,0.0,0.0,66,0.00,,,0.00,WUHU216HW,2013-03-07 06:26:00,
2013-03-07 01:31:00,46.0,35.6,30.09,WNW,293,0.0,0.0,67,0.00,,,0.00,WUHU216HW,2013-03-07 06:31:00,
2013-03-07 01:36:00,46.0,35.6,30.09,WNW,293,0.0,0.0,67,0.00,,,0.00,WUHU216HW,2013-03-07 06:36:00,
2013-03-07 01:41:00,45.6,34.9,30.09,WNW,293,0.0,0.0,66,0.00,,,0.00,WUHU216HW,2013-03-07 06:41:00,
2013-03-07 01:46:00,45.5,35.1,30.09,WNW,293,0.0,0.0,67,0.00,,,0.00,WUHU216HW,2013-03-07 06:46:00,
2013-03-07 01:51:00,45.3,34.9,30.09,WNW,293,0.0,0.0,67,0.00,,,0.00,WUHU216HW,2013-03-07 06:51:00,
2013-03-07 01:56:00,45.1,34.8,30.09,WNW,293,0.0,0.0,67,0.00,,,0.00,WUHU216HW,2013-03-07 06:56:00,
2013-03-07 02:01:00,44.9,34.6,30.09,WNW,293,0.0,0.0,67,0.00,,,0.00,WUHU216HW,2013-03-07 07:01:00,
2013-03-07 02:06:00,44.7,34.4,30.09,WNW,293,0.0,0.0,67,0.00,,,0.00,WUHU216HW,2013-03-07 07:06:00,
2013-03-07 02:11:00,44.4,34.1,30.09,WNW,293,0.0,0.0,67,0.00,,,0.00,WUHU216HW,2013-03-07 07:11:00,
2013-03-07 02:16:00,44.2,33.9,30.09,WNW,293,0.0,0.0,67,0.00,,,0.00,WUHU216HW,2013-03-07 07:16:00,
2013-03-07 02:21:00,44.0,33.7,30.09,WNW,293,0.0,0.0,67,0.00,,,0.00,WUHU216HW,2013-03-07 07:21:00,
2013-03-07 02:26:00,43.8,33.6,30.08,WNW,293,0.0,0.0,67,0.00,,,0.00,WUHU216HW,2013-03-07 07:26:00,
2013-03-07 02:31:00,43.7,33.4,30.08,WNW,293,0.0,0.0,67,0.00,,,0.00,WUHU216HW,2013-03-07 07:31:00,
2013-03-07 02:36:00,43.5,33.6,30.08,WNW,293,0.0,0.0,68,0.00,,,0.00,WUHU216HW,2013-03-07 07:36:00,
2013-03-07 02:41:00,43.5,33.6,30.08,WNW,293,0.0,0.0,68,0.00,,,0.00,WUHU216HW,2013-03-07 07:41:00,
2013-03-07 02:46:00,43.3,33.4,30.07,WNW,293,0.0,0.0,68,0.00,,,0.00,WUHU216HW,2013-03-07 07:46:00,
2013-03-07 02:51:00,43.3,33.4,30.07,WNW,293,0.0,0.0,68,0.00,,,0.00,WUHU216HW,2013-03-07 07:51:00,
2013-03-07 02:56:00,43.3,33.4,30.07,WNW,293,0.0,0.0,68,0.00,,,0.00,WUHU216HW,2013-03-07 07:56:00,
2013-03-07 03:01:00,43.3,33.8,30.07,WNW,293,0.0,0.0,69,0.00,,,0.00,WUHU216HW,2013-03-07 08:01:00,
2013-03-07 03:06:00,43.5,34.0,30.08,WNW,293,0.0,0.0,69,0.00,,,0.00,WUHU216HW,2013-03-07 08:06:00,
2013-03-07 03:11:00,43.5,33.6,30.07,WNW,293,0.0,0.0,68,0.00,,,0.00,WUHU216HW,2013-03-07 08:11:00,
2013-03-07 03:16:00,43.5,33.6,30.07,WNW,293,0.0,0.0,68,0.00,,,0.00,WUHU216HW,2013-03-07 08:16:00,
2013-03-07 03:21:00,43.5,33.6,30.07,WNW,293,0.0,0.0,68,0.00,,,0.00,WUHU216HW,2013-03-07 08:21:00,
2013-03-07 03:26:00,43.5,33.6,30.07,WNW,293,0.0,0.0,68,0.00,,,0.00,WUHU216HW,2013-03-07 08:26:00,
2013-03-07 03:32:00,43.5,33.6,30.07,WNW,293,0.0,0.0,68,0.00,,,0.00,WUHU216HW,2013-03-07 08:32:00,
2013-03-07 03:37:00,43.5,33.6,30.07,WNW,293,0.0,0.0,68,0.00,,,0.00,WUHU216HW,2013-03-07 08:37:00,
2013-03-07 03:42:00,43.5,33.2,30.07,WNW,293,0.0,0.0,67,0.00,,,0.00,WUHU216HW,2013-03-07 08:42:00,
2013-03-07 03:47:00,43.5,33.2,30.07,WNW,293,0.0,0.0,67,0.00,,,0.00,WUHU216HW,2013-03-07 08:47:00,
2013-03-07 03:52:00,43.5,33.2,30.07,WNW,293,0.0,0.0,67,0.00,,,0.00,WUHU216HW,2013-03-07 08:52:00,
2013-03-07 03:57:00,43.5,33.2,30.07,WNW,293,0.0,0.0,67,0.00,,,0.00,WUHU216HW,2013-03-07 08:57:00,
2013-03-07 04:02:00,43.5,33.2,30.08,WNW,293,0.0,0.0,67,0.00,,,0.00,WUHU216HW,2013-03-07 09:02:00,
2013-03-07 04:07:00,43.5,33.2,30.08,WNW,293,0.0,0.0,67,0.00,,,0.00,WUHU216HW,2013-03-07 09:07:00,
2013-03-07 04:12:00,43.5,33.2,30.08,WNW,293,0.0,0.0,67,0.00,,,0.00,WUHU216HW,2013-03-07 09:12:00,
2013-03-07 04:17:00,43.5,33.2,30.08,WNW,293,0.0,0.0,67,0.00,,,0.00,WUHU216HW,2013-03-07 09:17:00,
2013-03-07 04:22:00,43.5,33.2,30.08,WNW,293,0.0,0.0,67,0.00,,,0.00,WUHU216HW,2013-03-07 09:22:00,
2013-03-07 04:27:00,43.3,33.0,30.08,WNW,293,0.0,0.0,67,0.00,,,0.00,WUHU216HW,2013-03-07 09:27:00,
2013-03-07 04:32:00,43.1,32.9,30.08,WNW,293,0.0,0.0,67,0.00,,,0.00,WUHU216HW,2013-03-07 09:32:00,
2013-03-07 04:37:00,42.9,32.7,30.09,WNW,293,0.0,0.0,67,0.00,,,0.00,WUHU216HW,2013-03-07 09:37:00,
2013-03-07 04:42:00,42.9,32.7,30.09,WNW,293,0.0,0.0,67,0.00,,,0.00,WUHU216HW,2013-03-07 09:42:00,
2013-03-07 04:47:00,42.6,32.4,30.09,WNW,293,0.0,0.0,67,0.00,,,0.00,WUHU216HW,2013-03-07 09:47:00,
2013-03-07 04:52:00,42.4,32.2,30.09,WNW,293,0.0,0.0,67,0.00,,,0.00,WUHU216HW,2013-03-07 09:52:00,
2013-03-07 04:57:00,42.4,32.6,30.09,WNW,293,0.0,0.0,68,0.00,,,0.00,WUHU216HW,2013-03-07 09:57:00,
2013-03-07 05:02:00,42.2,32.4,30.09,WNW,293,0.0,0.0,68,0.00,,,0.00,WUHU216HW,2013-03-07 10:02:00,
2013-03-07 05:07:00,42.0,32.2,30.10,WNW,293,0.0,0.0,68,0.00,,,0.00,WUHU216HW,2013-03-07 10:07:00,
2013-03-07 05:12:00,42.0,32.2,30.10,WNW,293,0.0,0.0,68,0.00,,,0.00,WUHU216HW,2013-03-07 10:12:00,
2013-03-07 05:17:00,41.9,32.1,30.10,WNW,293,0.0,0.0,68,0.00,,,0.00,WUHU216HW,2013-03-07 10:17:00,
2013-03-07 05:22:00,41.7,31.9,30.10,WNW,293,0.0,0.0,68,0.00,,,0.00,WUHU216HW,2013-03-07 10:22:00,
2013-03-07 05:27:00,41.3,31.5,30.10,WNW,293,0.0,0.0,68,0.00,,,0.00,WUHU216HW,2013-03-07 10:27:00,
2013-03-07 05:32:00,41.1,31.4,30.10,WNW,293,0.0,0.0,68,0.00,,,0.00,WUHU216HW,2013-03-07 10:32:00,
2013-03-07 05:37:00,40.8,31.0,30.10,WNW,293,0.0,0.0,68,0.00,,,0.00,WUHU216HW,2013-03-07 10:37:00,
2013-03-07 05:42:00,40.6,30.8,30.10,WNW,293,0.0,0.0,68,0.00,,,0.00,WUHU216HW,2013-03-07 10:42:00,
2013-03-07 05:48:00,40.2,30.5,30.10,WNW,293,0.0,0.0,68,0.00,,,0.00,WUHU216HW,2013-03-07 10:48:00,
2013-03-07 05:53:00,40.1,30.7,30.10,WNW,293,0.0,0.0,69,0.00,,,0.00,WUHU216HW,2013-03-07 10:53:00,
2013-03-07 05:58:00,39.9,30.5,30.10,WNW,293,0.0,0.0,69,0.00,,,0.00,WUHU216HW,2013-03-07 10:58:00,
2013-03-07 06:03:00,39.9,30.9,30.10,WNW,293,0.0,0.0,70,0.00,,,0.00,WUHU216HW,2013-03-07 11:03:00,
2013-03-07 06:08:00,39.9,30.9,30.11,WNW,293,0.0,0.0,70,0.00,,,0.00,WUHU216HW,2013-03-07 11:08:00,
2013-03-07 06:13:00,39.9,30.9,30.11,WNW,293,0.0,0.0,70,0.00,,,0.00,WUHU216HW,2013-03-07 11:13:00,
2013-03-07 06:18:00,39.9,31.2,30.11,WNW,293,0.0,0.0,71,0.00,,,0.00,WUHU216HW,2013-03-07 11:18:00,
2013-03-07 06:23:00,39.9,31.2,30.11,WNW,293,0.0,0.0,71,0.00,,,0.00,WUHU216HW,2013-03-07 11:23:00,
2013-03-07 06:28:00,40.1,31.4,30.11,WNW,293,0.0,0.0,71,0.00,,,0.00,WUHU216HW,2013-03-07 11:28:00,
2013-03-07 06:33:00,40.1,31.4,30.11,WNW,293,0.0,0.0,71,0.00,,,0.00,WUHU216HW,2013-03-07 11:33:00,
2013-03-07 06:38:00,40.1,31.4,30.12,WNW,293,0.0,0.0,71,0.00,,,0.00,WUHU216HW,2013-03-07 11:38:00,
2013-03-07 06:43:00,40.2,31.6,30.12,WNW,293,0.0,0.0,71,0.00,,,0.00,WUHU216HW,2013-03-07 11:43:00,
2013-03-07 06:48:00,40.2,31.6,30.12,WNW,293,0.0,0.0,71,0.00,,,0.00,WUHU216HW,2013-03-07 11:48:00,
2013-03-07 06:53:00,40.2,31.6,30.12,WNW,293,0.0,0.0,71,0.00,,,0.00,WUHU216HW,2013-03-07 11:53:00,
2013-03-07 06:58:00,40.2,31.6,30.12,WNW,293,0.0,0.0,71,0.00,,,0.00,WUHU216HW,2013-03-07 11:58:00,
2013-03-07 07:03:00,40.2,31.6,30.13,WNW,293,0.0,0.0,71,0.00,,,0.00,WUHU216HW,2013-03-07 12:03:00,
2013-03-07 07:08:00,40.4,31.7,30.12,WNW,293,0.0,0.0,71,0.00,,,0.00,WUHU216HW,2013-03-07 12:08:00,
2013-03-07 07:13:00,40.6,32.2,30.13,WNW,293,0.0,0.0,72,0.00,,,0.00,WUHU216HW,2013-03-07 12:13:00,
2013-03-07 07:18:00,40.8,32.4,30.13,WNW,293,0.0,0.0,72,0.00,,,0.00,WUHU216HW,2013-03-07 12:18:00,
2013-03-07 07:23:00,40.8,32.1,30.13,WNW,293,0.0,0.0,72,0.00,,,0.00,WUHU216HW,2013-03-07 12:23:00,
2013-03-07 07:28:00,41.1,32.3,30.14,WNW,293,0.0,0.0,71,0.00,,,0.00,WUHU216HW,2013-03-07 12:28:00,
2013-03-07 07:33:00,41.3,32.6,30.14,WNW,293,0.0,0.0,71,0.00,,,0.00,WUHU216HW,2013-03-07 12:33:00,
2013-03-07 07:38:00,41.5,32.8,30.14,WNW,293,0.0,0.0,71,0.00,,,0.00,WUHU216HW,2013-03-07 12:38:00,
2013-03-07 07:43:00,41.7,33.0,30.13,WNW,293,0.0,0.0,71,0.00,,,0.00,WUHU216HW,2013-03-07 12:43:00,
2013-03-07 07:48:00,42.0,33.4,30.14,NW,315,0.0,2.0,71,0.00,,,0.00,WUHU216HW,2013-03-07 12:48:00,
2013-03-07 07:53:00,42.6,33.6,30.14,NW,315,1.1,2.0,70,0.00,,,0.00,WUHU216HW,2013-03-07 12:53:00,
2013-03-07 07:58:00,42.9,33.9,30.14,NW,315,0.0,1.7,70,0.00,,,0.00,WUHU216HW,2013-03-07 12:58:00,
2013-03-07 08:03:00,43.3,33.8,30.14,NW,315,0.0,0.0,69,0.00,,,0.00,WUHU216HW,2013-03-07 13:03:00,
2013-03-07 08:08:00,43.8,34.3,30.14,NNW,338,0.0,3.3,69,0.00,,,0.00,WUHU216HW,2013-03-07 13:08:00,
2013-03-07 08:13:00,44.4,34.4,30.14,North,0,4.0,6.0,68,0.00,,,0.00,WUHU216HW,2013-03-07 13:13:00,
2013-03-07 08:18:00,44.7,34.4,30.15,NNE,23,2.6,9.3,67,0.00,,,0.00,WUHU216HW,2013-03-07 13:18:00,
2013-03-07 08:23:00,45.1,34.4,30.14,NNE,23,1.5,9.3,66,0.00,,,0.00,WUHU216HW,2013-03-07 13:23:00,
2013-03-07 08:28:00,45.5,34.3,30.15,North,0,6.2,10.5,65,0.00,,,0.00,WUHU216HW,2013-03-07 13:28:00,
2013-03-07 08:33:00,45.6,34.1,30.14,NE,45,5.8,12.7,64,0.00,,,0.00,WUHU216HW,2013-03-07 13:33:00,
2013-03-07 08:38:00,46.0,34.5,30.14,NNE,23,6.2,12.7,64,0.00,,,0.00,WUHU216HW,2013-03-07 13:38:00,
2013-03-07 08:43:00,46.2,34.2,30.15,NNE,23,6.2,8.5,63,0.00,,,0.00,WUHU216HW,2013-03-07 13:43:00,
2013-03-07 08:48:00,46.5,34.6,30.15,NNE,23,2.9,8.5,63,0.00,,,0.00,WUHU216HW,2013-03-07 13:48:00,
2013-03-07 08:53:00,46.7,34.7,30.15,NNE,23,5.8,6.9,63,0.00,,,0.00,WUHU216HW,2013-03-07 13:53:00,
2013-03-07 08:58:00,47.1,34.7,30.15,NNE,23,2.4,9.1,62,0.00,,,0.00,WUHU216HW,2013-03-07 13:58:00,
2013-03-07 09:03:00,47.4,34.7,30.16,NNE,23,5.8,9.1,61,0.00,,,0.00,WUHU216HW,2013-03-07 14:03:00,
2013-03-07 09:08:00,47.8,35.0,30.15,NNE,23,0.0,6.7,61,0.00,,,0.00,WUHU216HW,2013-03-07 14:08:00,
2013-03-07 09:13:00,48.0,35.2,30.16,NE,45,3.1,6.7,61,0.00,,,0.00,WUHU216HW,2013-03-07 14:13:00,
2013-03-07 09:18:00,48.3,35.2,30.16,NNE,23,4.4,5.5,60,0.00,,,0.00,WUHU216HW,2013-03-07 14:18:00,
2013-03-07 09:23:00,48.5,34.9,30.16,NNE,23,1.1,7.1,59,0.00,,,0.00,WUHU216HW,2013-03-07 14:23:00,
2013-03-07 09:28:00,48.9,35.7,30.16,NNE,23,6.7,7.1,60,0.00,,,0.00,WUHU216HW,2013-03-07 14:28:00,
2013-03-07 09:33:00,49.2,35.5,30.16,NNE,23,2.4,9.3,59,0.00,,,0.00,WUHU216HW,2013-03-07 14:33:00,
2013-03-07 09:38:00,49.8,36.5,30.16,NNE,23,5.5,9.3,60,0.00,,,0.00,WUHU216HW,2013-03-07 14:38:00,
2013-03-07 09:43:00,50.0,36.2,30.16,NNE,23,4.0,5.5,60,0.00,,,0.00,WUHU216HW,2013-03-07 14:43:00,
2013-03-07 09:48:00,50.3,36.5,30.16,NNE,23,2.2,7.1,59,0.00,,,0.00,WUHU216HW,2013-03-07 14:48:00,
2013-03-07 09:53:00,50.5,36.7,30.17,NNE,23,3.3,7.1,59,0.00,,,0.00,WUHU216HW,2013-03-07 14:53:00,
2013-03-07 09:58:00,50.7,37.4,30.17,NNE,23,2.0,4.6,60,0.00,,,0.00,WUHU216HW,2013-03-07 14:58:00,
2013-03-07 10:03:00,51.2,37.3,30.17,NNE,23,2.4,4.6,59,0.00,,,0.00,WUHU216HW,2013-03-07 15:03:00,
2013-03-07 10:08:00,51.4,37.5,30.17,NE,45,1.5,3.1,59,0.00,,,0.00,WUHU216HW,2013-03-07 15:08:00,
2013-03-07 10:13:00,51.8,37.8,30.17,NE,45,3.8,3.8,59,0.00,,,0.00,WUHU216HW,2013-03-07 15:13:00,
2013-03-07 10:18:00,52.1,37.7,30.17,NNE,23,6.7,6.7,58,0.00,,,0.00,WUHU216HW,2013-03-07 15:18:00,
2013-03-07 10:23:00,52.5,38.5,30.17,ENE,68,6.4,6.7,59,0.00,,,0.00,WUHU216HW,2013-03-07 15:23:00,
2013-03-07 10:28:00,53.2,39.7,30.17,ENE,68,2.6,6.4,60,0.00,,,0.00,WUHU216HW,2013-03-07 15:28:00,
2013-03-07 10:33:00,53.4,39.4,30.17,ENE,68,0.0,5.3,59,0.00,,,0.00,WUHU216HW,2013-03-07 15:33:00,
2013-03-07 10:38:00,54.1,40.1,30.16,ENE,68,1.5,3.3,59,0.00,,,0.00,WUHU216HW,2013-03-07 15:38:00,
2013-03-07 10:43:00,54.5,40.4,30.16,ENE,68,5.3,5.3,59,0.00,,,0.00,WUHU216HW,2013-03-07 15:43:00,
2013-03-07 10:48:00,55.2,41.0,30.17,ENE,68,2.6,5.3,59,0.00,,,0.00,WUHU216HW,2013-03-07 15:48:00,
2013-03-07 10:53:00,55.5,40.4,30.16,ENE,68,2.6,5.3,57,0.00,,,0.00,WUHU216HW,2013-03-07 15:53:00,
2013-03-07 10:58:00,55.9,40.8,30.16,NE,45,3.1,6.4,57,0.00,,,0.00,WUHU216HW,2013-03-07 15:58:00,
2013-03-07 11:03:00,56.3,40.7,30.17,NE,45,4.0,6.4,56,0.00,,,0.00,WUHU216HW,2013-03-07 16:03:00,
2013-03-07 11:08:00,56.8,41.3,30.17,ENE,68,5.5,5.5,57,0.00,,,0.00,WUHU216HW,2013-03-07 16:08:00,
2013-03-07 11:13:00,57.2,42.7,30.17,ENE,68,5.1,6.0,58,0.00,,,0.00,WUHU216HW,2013-03-07 16:13:00,
2013-03-07 11:18:00,58.1,43.3,30.17,NE,45,0.0,6.0,58,0.00,,,0.00,WUHU216HW,2013-03-07 16:18:00,
2013-03-07 11:23:00,58.8,43.1,30.17,NE,45,5.3,5.3,56,0.00,,,0.00,WUHU216HW,2013-03-07 16:23:00,
2013-03-07 11:28:00,58.8,42.6,30.17,NE,45,1.7,5.3,55,0.00,,,0.00,WUHU216HW,2013-03-07 16:28:00,
2013-03-07 11:33:00,59.0,43.8,30.17,ENE,68,4.2,4.6,57,0.00,,,0.00,WUHU216HW,2013-03-07 16:33:00,
2013-03-07 11:39:00,59.3,42.1,30.17,NE,45,0.0,4.6,53,0.00,,,0.00,WUHU216HW,2013-03-07 16:39:00,
2013-03-07 11:44:00,59.5,42.8,30.17,ENE,68,4.0,5.3,54,0.00,,,0.00,WUHU216HW,2013-03-07 16:44:00,
2013-03-07 11:49:00,60.0,43.8,30.16,ENE,68,2.0,5.3,55,0.00,,,0.00,WUHU216HW,2013-03-07 16:49:00,
2013-03-07 11:54:00,60.6,42.8,30.17,North,0,3.3,4.6,53,0.00,,,0.00,WUHU216HW,2013-03-07 16:54:00,
2013-03-07 11:59:00,60.6,42.8,30.16,NE,45,5.5,5.5,53,0.00,,,0.00,WUHU216HW,2013-03-07 16:59:00,
2013-03-07 12:04:00,60.9,44.6,30.16,ENE,68,3.5,5.8,55,0.00,,,0.00,WUHU216HW,2013-03-07 17:04:00,
2013-03-07 12:09:00,61.7,45.3,30.16,ENE,68,1.7,5.8,55,0.00,,,0.00,WUHU216HW,2013-03-07 17:09:00,
2013-03-07 12:14:00,62.2,44.8,30.16,ENE,68,3.5,6.0,53,0.00,,,0.00,WUHU216HW,2013-03-07 17:14:00,
2013-03-07 12:19:00,62.7,44.6,30.16,ENE,68,3.8,6.0,52,0.00,,,0.00,WUHU216HW,2013-03-07 17:19:00,
2013-03-07 12:24:00,62.9,44.9,30.15,ENE,68,0.0,3.8,52,0.00,,,0.00,WUHU216HW,2013-03-07 17:24:00,
2013-03-07 12:29:00,62.7,43.8,30.15,NNE,23,1.3,3.8,50,0.00,,,0.00,WUHU216HW,2013-03-07 17:29:00,
2013-03-07 12:34:00,62.4,43.5,30.15,NE,45,6.0,6.0,50,0.00,,,0.00,WUHU216HW,2013-03-07 17:34:00,
2013-03-07 12:39:00,62.4,44.0,30.15,NE,45,0.0,6.0,51,0.00,,,0.00,WUHU216HW,2013-03-07 17:39:00,
2013-03-07 12:44:00,62.6,44.8,30.14,NE,45,2.6,2.6,51,0.00,,,0.00,WUHU216HW,2013-03-07 17:44:00,
2013-03-07 12:49:00,63.1,44.6,30.13,NNE,23,6.2,6.2,51,0.00,,,0.00,WUHU216HW,2013-03-07 17:49:00,
2013-03-07 12:54:00,63.1,43.6,30.13,NNE,23,0.6,6.2,49,0.00,,,0.00,WUHU216HW,2013-03-07 17:54:00,
2013-03-07 12:59:00,63.5,44.8,30.13,NNE,23,2.0,5.1,51,0.00,,,0.00,WUHU216HW,2013-03-07 17:59:00,
2013-03-07 13:04:00,63.5,44.5,30.13,NE,45,2.4,2.9,51,0.00,,,0.00,WUHU216HW,2013-03-07 18:04:00,
2013-03-07 13:09:00,64.0,45.4,30.13,SE,135,0.0,3.3,51,0.00,,,0.00,WUHU216HW,2013-03-07 18:09:00,
2013-03-07 13:14:00,64.2,44.5,30.12,WSW,248,0.0,3.3,49,0.00,,,0.00,WUHU216HW,2013-03-07 18:14:00,
2013-03-07 13:19:00,64.2,44.5,30.12,NNW,338,0.0,0.0,49,0.00,,,0.00,WUHU216HW,2013-03-07 18:19:00,
2013-03-07 13:24:00,64.5,45.9,30.13,NE,45,0.0,2.0,51,0.00,,,0.00,WUHU216HW,2013-03-07 18:24:00,
2013-03-07 13:29:00,65.1,45.4,30.13,NE,45,0.0,2.0,49,0.00,,,0.00,WUHU216HW,2013-03-07 18:29:00,
2013-03-07 13:34:00,65.3,46.2,30.12,NE,45,0.0,6.0,50,0.00,,,0.00,WUHU216HW,2013-03-07 18:34:00,
2013-03-07 13:39:00,65.6,45.9,30.12,ENE,68,2.6,6.0,49,0.00,,,0.00,WUHU216HW,2013-03-07 18:39:00,
2013-03-07 13:44:00,66.2,47.1,30.12,NE,45,0.0,5.1,50,0.00,,,0.00,WUHU216HW,2013-03-07 18:44:00,
2013-03-07 13:49:00,66.5,47.4,30.12,NE,45,0.0,5.1,50,0.00,,,0.00,WUHU216HW,2013-03-07 18:49:00,
2013-03-07 13:54:00,66.9,47.1,30.11,NE,45,0.0,2.9,49,0.00,,,0.00,WUHU216HW,2013-03-07 18:54:00,
2013-03-07 13:59:00,67.2,48.0,30.11,ENE,68,0.6,2.9,50,0.00,,,0.00,WUHU216HW,2013-03-07 18:59:00,
2013-03-07 14:04:00,68.1,48.9,30.11,ENE,68,0.0,3.5,50,0.00,,,0.00,WUHU216HW,2013-03-07 19:04:00,
2013-03-07 14:09:00,68.7,48.7,30.10,NE,45,0.6,3.5,48,0.00,,,0.00,WUHU216HW,2013-03-07 19:09:00,
2013-03-07 14:14:00,68.7,47.0,30.10,NNE,23,0.0,2.2,46,0.00,,,0.00,WUHU216HW,2013-03-07 19:14:00,
2013-03-07 14:19:00,68.7,48.7,30.10,NNE,23,0.0,2.2,49,0.00,,,0.00,WUHU216HW,2013-03-07 19:19:00,
2013-03-07 14:24:00,68.9,47.1,30.10,NNE,23,0.0,1.3,46,0.00,,,0.00,WUHU216HW,2013-03-07 19:24:00,
2013-03-07 14:29:00,68.7,45.8,30.10,WNW,293,0.0,1.3,44,0.00,,,0.00,WUHU216HW,2013-03-07 19:29:00,
2013-03-07 14:34:00,68.7,45.8,30.10,SSW,203,0.0,1.5,44,0.00,,,0.00,WUHU216HW,2013-03-07 19:34:00,
2013-03-07 14:39:00,68.9,46.5,30.10,NE,45,0.0,3.1,45,0.00,,,0.00,WUHU216HW,2013-03-07 19:39:00,
2013-03-07 14:44:00,69.4,47.6,30.10,NE,45,0.0,3.3,46,0.00,,,0.00,WUHU216HW,2013-03-07 19:44:00,
2013-03-07 14:49:00,69.8,46.7,30.10,NE,45,0.0,3.3,44,0.00,,,0.00,WUHU216HW,2013-03-07 19:49:00,
2013-03-07 14:54:00,70.1,47.1,30.09,NNW,338,0.0,0.0,44,0.00,,,0.00,WUHU216HW,2013-03-07 19:54:00,
2013-03-07 14:59:00,70.3,47.2,30.09,NNE,23,0.6,1.7,44,0.00,,,0.00,WUHU216HW,2013-03-07 19:59:00,
2013-03-07 15:04:00,70.7,47.0,30.09,NE,45,0.0,4.2,43,0.00,,,0.00,WUHU216HW,2013-03-07 20:04:00,
2013-03-07 15:09:00,71.4,47.6,30.09,ENE,68,1.7,5.5,43,0.00,,,0.00,WUHU216HW,2013-03-07 20:09:00,
2013-03-07 15:14:00,71.9,47.5,30.09,ENE,68,0.0,5.5,42,0.00,,,0.00,WUHU216HW,2013-03-07 20:14:00,
2013-03-07 15:19:00,72.3,47.8,30.09,NE,45,2.4,2.9,42,0.00,,,0.00,WUHU216HW,2013-03-07 20:19:00,
2013-03-07 15:25:00,73.0,47.9,30.09,NE,45,5.3,5.3,41,0.00,,,0.00,WUHU216HW,2013-03-07 20:25:00,
2013-03-07 15:30:00,73.5,48.4,30.09,ENE,68,2.4,7.1,41,0.00,,,0.00,WUHU216HW,2013-03-07 20:30:00,
2013-03-07 15:35:00,73.9,48.1,30.09,NE,45,4.0,7.1,40,0.00,,,0.00,WUHU216HW,2013-03-07 20:35:00,
2013-03-07 15:40:00,73.9,47.3,30.09,NNW,338,0.0,6.4,39,0.00,,,0.00,WUHU216HW,2013-03-07 20:40:00,
2013-03-07 15:45:00,74.3,47.7,30.09,NE,45,3.8,3.8,39,0.00,,,0.00,WUHU216HW,2013-03-07 20:45:00,
2013-03-07 15:50:00,74.8,48.2,30.09,ENE,68,3.3,3.8,39,0.00,,,0.00,WUHU216HW,2013-03-07 20:50:00,
2013-03-07 15:55:00,75.3,47.9,30.09,ENE,68,1.3,5.3,38,0.00,,,0.00,WUHU216HW,2013-03-07 20:55:00,
2013-03-07 16:00:00,75.7,48.2,30.09,ENE,68,0.6,5.3,38,0.00,,,0.00,WUHU216HW,2013-03-07 21:00:00,
2013-03-07 16:05:00,75.9,48.4,30.09,ENE,68,1.3,1.3,38,0.00,,,0.00,WUHU216HW,2013-03-07 21:05:00,
2013-03-07 16:10:00,76.6,49.0,30.09,ENE,68,3.1,5.1,38,0.00,,,0.00,WUHU216HW,2013-03-07 21:10:00,
2013-03-07 16:15:00,76.8,47.7,30.09,NE,45,0.8,5.1,36,0.00,,,0.00,WUHU216HW,2013-03-07 21:15:00,
2013-03-07 16:20:00,76.8,48.4,30.09,NE,45,0.0,1.1,36,0.00,,,0.00,WUHU216HW,2013-03-07 21:20:00,
2013-03-07 16:25:00,77.0,48.7,30.09,NE,45,0.0,2.6,37,0.00,,,0.00,WUHU216HW,2013-03-07 21:25:00,
2013-03-07 16:30:00,77.5,48.3,30.09,NE,45,0.0,2.6,36,0.00,,,0.00,WUHU216HW,2013-03-07 21:30:00,
2013-03-07 16:35:00,77.7,48.4,30.09,NE,45,0.0,2.4,36,0.00,,,0.00,WUHU216HW,2013-03-07 21:35:00,
2013-03-07 16:40:00,78.0,48.0,30.09,NE,45,0.0,1.7,35,0.00,,,0.00,WUHU216HW,2013-03-07 21:40:00,
2013-03-07 16:45:00,78.4,48.3,30.09,NE,45,0.8,1.7,35,0.00,,,0.00,WUHU216HW,2013-03-07 21:45:00,
2013-03-07 16:50:00,79.1,48.9,30.10,NE,45,0.0,1.5,35,0.00,,,0.00,WUHU216HW,2013-03-07 21:50:00,
2013-03-07 16:55:00,79.8,48.8,30.10,NE,45,0.0,1.5,34,0.00,,,0.00,WUHU216HW,2013-03-07 21:55:00,
2013-03-07 17:00:00,79.8,48.8,30.10,NE,45,0.0,0.0,34,0.00,,,0.00,WUHU216HW,2013-03-07 22:00:00,
2013-03-07 17:05:00,80.0,48.2,30.09,NE,45,0.0,2.6,34,0.00,,,0.00,WUHU216HW,2013-03-07 22:05:00,
2013-03-07 17:10:00,79.8,48.8,30.09,NE,45,0.0,2.6,34,0.00,,,0.00,WUHU216HW,2013-03-07 22:10:00,
2013-03-07 17:15:00,80.4,49.1,30.10,NE,45,0.0,0.0,34,0.00,,,0.00,WUHU216HW,2013-03-07 22:15:00,
2013-03-07 17:20:00,80.4,47.7,30.10,NE,45,0.0,0.0,32,0.00,,,0.00,WUHU216HW,2013-03-07 22:20:00,
2013-03-07 17:25:00,80.2,48.3,30.10,NE,45,0.0,2.2,33,0.00,,,0.00,WUHU216HW,2013-03-07 22:25:00,
2013-03-07 17:30:00,79.8,48.2,30.10,NE,45,0.0,2.2,33,0.00,,,0.00,WUHU216HW,2013-03-07 22:30:00,
2013-03-07 17:35:00,79.5,47.7,30.10,NE,45,0.0,0.0,33,0.00,,,0.00,WUHU216HW,2013-03-07 22:35:00,
2013-03-07 17:40:00,79.1,47.4,30.10,NE,45,0.0,0.0,33,0.00,,,0.00,WUHU216HW,2013-03-07 22:40:00,
2013-03-07 17:45:00,78.4,46.7,30.10,NE,45,0.0,0.0,33,0.00,,,0.00,WUHU216HW,2013-03-07 22:45:00,
2013-03-07 17:50:00,77.1,45.7,30.10,NE,45,0.0,0.0,33,0.00,,,0.00,WUHU216HW,2013-03-07 22:50:00,
2013-03-07 17:55:00,75.9,45.3,30.10,NE,45,0.0,0.0,34,0.00,,,0.00,WUHU216HW,2013-03-07 22:55:00,
2013-03-07 18:00:00,74.8,45.1,30.10,NE,45,0.0,0.0,35,0.00,,,0.00,WUHU216HW,2013-03-07 23:00:00,
2013-03-07 18:05:00,73.5,44.0,30.10,NE,45,0.0,1.5,35,0.00,,,0.00,WUHU216HW,2013-03-07 23:05:00,
2013-03-07 18:10:00,72.6,44.7,30.10,NE,45,0.0,1.5,37,0.00,,,0.00,WUHU216HW,2013-03-07 23:10:00,
2013-03-07 18:15:00,71.7,44.7,30.10,NE,45,0.0,0.0,38,0.00,,,0.00,WUHU216HW,2013-03-07 23:15:00,
2013-03-07 18:20:00,70.7,44.4,30.11,NE,45,0.0,0.0,39,0.00,,,0.00,WUHU216HW,2013-03-07 23:20:00,
2013-03-07 18:25:00,69.9,44.5,30.11,NE,45,0.0,0.0,40,0.00,,,0.00,WUHU216HW,2013-03-07 23:25:00,
2013-03-07 18:30:00,69.2,44.5,30.11,NE,45,0.0,0.0,41,0.00,,,0.00,WUHU216HW,2013-03-07 23:30:00,
2013-03-07 18:35:00,68.1,44.1,30.11,NE,45,0.0,0.0,42,0.00,,,0.00,WUHU216HW,2013-03-07 23:35:00,
2013-03-07 18:40:00,67.6,44.2,30.11,NE,45,0.0,0.0,43,0.00,,,0.00,WUHU216HW,2013-03-07 23:40:00,
2013-03-07 18:45:00,66.9,44.0,30.11,NE,45,0.0,0.0,44,0.00,,,0.00,WUHU216HW,2013-03-07 23:45:00,
2013-03-07 18:50:00,66.0,43.3,30.11,NE,45,0.0,0.0,44,0.00,,,0.00,WUHU216HW,2013-03-07 23:50:00,
2013-03-07 18:55:00,65.4,43.4,30.12,NE,45,0.0,0.0,45,0.00,,,0.00,WUHU216HW,2013-03-07 23:55:00,
2013-03-07 19:00:00,64.5,43.1,30.12,NE,45,0.0,0.0,46,0.00,,,0.00,WUHU216HW,2013-03-08 00:00:00,
2013-03-07 19:05:00,64.0,42.6,30.12,NE,45,0.0,0.0,46,0.00,,,0.00,WUHU216HW,2013-03-08 00:05:00,
2013-03-07 19:10:00,63.3,42.6,30.12,NE,45,0.0,0.0,47,0.00,,,0.00,WUHU216HW,2013-03-08 00:10:00,
2013-03-07 19:15:00,62.7,42.1,30.12,NE,45,0.0,0.0,47,0.00,,,0.00,WUHU216HW,2013-03-08 00:15:00,
2013-03-07 19:21:00,62.2,42.2,30.12,NE,45,0.0,0.0,48,0.00,,,0.00,WUHU216HW,2013-03-08 00:21:00,
2013-03-07 19:26:00,61.5,41.5,30.12,NE,45,0.0,0.0,48,0.00,,,0.00,WUHU216HW,2013-03-08 00:26:00,
2013-03-07 19:31:00,61.3,41.9,30.13,NE,45,0.0,0.0,49,0.00,,,0.00,WUHU216HW,2013-03-08 00:31:00,
2013-03-07 19:36:00,60.6,41.9,30.13,NE,45,0.0,0.0,49,0.00,,,0.00,WUHU216HW,2013-03-08 00:36:00,
2013-03-07 19:41:00,60.4,41.7,30.14,NE,45,0.0,0.0,50,0.00,,,0.00,WUHU216HW,2013-03-08 00:41:00,
2013-03-07 19:46:00,59.7,41.5,30.14,NE,45,0.0,0.0,51,0.00,,,0.00,WUHU216HW,2013-03-08 00:46:00,
2013-03-07 19:51:00,59.5,41.8,30.14,NE,45,0.0,0.0,52,0.00,,,0.00,WUHU216HW,2013-03-08 00:51:00,
2013-03-07 19:56:00,58.8,41.3,30.13,NE,45,0.0,0.0,52,0.00,,,0.00,WUHU216HW,2013-03-08 00:56:00,
2013-03-07 20:01:00,58.8,41.2,30.13,NE,45,0.0,0.0,52,0.00,,,0.00,WUHU216HW,2013-03-08 01:01:00,
2013-03-07 20:06:00,58.2,41.2,30.13,NE,45,0.0,0.0,53,0.00,,,0.00,WUHU216HW,2013-03-08 01:06:00,
2013-03-07 20:11:00,57.7,40.7,30.14,NE,45,0.0,0.0,53,0.00,,,0.00,WUHU216HW,2013-03-08 01:11:00,
2013-03-07 20:16:00,57.0,40.0,30.14,NE,45,0.0,0.0,53,0.00,,,0.00,WUHU216HW,2013-03-08 01:16:00,
2013-03-07 20:21:00,56.6,40.1,30.15,NE,45,0.0,0.0,54,0.00,,,0.00,WUHU216HW,2013-03-08 01:21:00,
2013-03-07 20:26:00,56.3,39.8,30.15,NE,45,0.0,0.0,54,0.00,,,0.00,WUHU216HW,2013-03-08 01:26:00,
2013-03-07 20:31:00,56.1,40.1,30.15,NE,45,0.0,0.0,55,0.00,,,0.00,WUHU216HW,2013-03-08 01:31:00,
2013-03-07 20:36:00,55.9,39.9,30.15,NE,45,0.0,0.0,55,0.00,,,0.00,WUHU216HW,2013-03-08 01:36:00,
2013-03-07 20:41:00,55.0,39.0,30.15,NE,45,0.0,0.0,55,0.00,,,0.00,WUHU216HW,2013-03-08 01:41:00,
2013-03-07 20:46:00,54.5,38.5,30.16,NE,45,0.0,0.0,55,0.00,,,0.00,WUHU216HW,2013-03-08 01:46:00,
2013-03-07 20:51:00,54.3,38.8,30.16,NE,45,0.0,0.0,56,0.00,,,0.00,WUHU216HW,2013-03-08 01:51:00,
2013-03-07 20:56:00,54.3,39.3,30.16,NE,45,0.0,0.0,57,0.00,,,0.00,WUHU216HW,2013-03-08 01:56:00,
2013-03-07 21:01:00,54.3,39.3,30.16,NE,45,0.0,0.0,57,0.00,,,0.00,WUHU216HW,2013-03-08 02:01:00,
2013-03-07 21:06:00,54.3,39.3,30.16,NE,45,0.0,0.0,57,0.00,,,0.00,WUHU216HW,2013-03-08 02:06:00,
2013-03-07 21:11:00,54.3,39.3,30.16,NE,45,0.0,0.0,57,0.00,,,0.00,WUHU216HW,2013-03-08 02:11:00,
2013-03-07 21:16:00,54.1,39.1,30.16,NE,45,0.0,0.0,57,0.00,,,0.00,WUHU216HW,2013-03-08 02:16:00,
2013-03-07 21:21:00,53.9,39.4,30.16,NE,45,0.0,0.0,58,0.00,,,0.00,WUHU216HW,2013-03-08 02:21:00,
2013-03-07 21:26:00,53.6,38.6,30.16,NE,45,0.0,0.0,57,0.00,,,0.00,WUHU216HW,2013-03-08 02:26:00,
2013-03-07 21:31:00,53.2,38.8,30.16,NE,45,0.0,0.0,58,0.00,,,0.00,WUHU216HW,2013-03-08 02:31:00,
2013-03-07 21:36:00,52.8,37.9,30.17,NE,45,0.0,0.0,57,0.00,,,0.00,WUHU216HW,2013-03-08 02:36:00,
2013-03-07 21:41:00,52.7,38.2,30.17,NE,45,0.0,0.0,58,0.00,,,0.00,WUHU216HW,2013-03-08 02:41:00,
2013-03-07 21:46:00,52.3,37.9,30.17,NE,45,0.0,0.0,58,0.00,,,0.00,WUHU216HW,2013-03-08 02:46:00,
2013-03-07 21:51:00,52.1,37.7,30.17,NE,45,0.0,0.0,58,0.00,,,0.00,WUHU216HW,2013-03-08 02:51:00,
2013-03-07 21:56:00,51.9,38.0,30.17,NE,45,0.0,0.0,59,0.00,,,0.00,WUHU216HW,2013-03-08 02:56:00,
2013-03-07 22:01:00,51.8,38.3,30.17,NE,45,0.0,0.0,60,0.00,,,0.00,WUHU216HW,2013-03-08 03:01:00,
2013-03-07 22:07:00,51.8,38.8,30.18,NE,45,0.0,0.0,61,0.00,,,0.00,WUHU216HW,2013-03-08 03:07:00,
2013-03-07 22:12:00,51.8,39.1,30.18,NE,45,0.0,0.0,62,0.00,,,0.00,WUHU216HW,2013-03-08 03:12:00,
2013-03-07 22:16:00,51.6,38.9,30.18,NE,45,0.0,0.0,62,0.00,,,0.00,WUHU216HW,2013-03-08 03:16:00,
2013-03-07 22:22:00,51.6,38.9,30.18,NE,45,0.0,0.0,62,0.00,,,0.00,WUHU216HW,2013-03-08 03:22:00,
2013-03-07 22:27:00,51.6,39.3,30.18,NE,45,0.0,0.0,63,0.00,,,0.00,WUHU216HW,2013-03-08 03:27:00,
2013-03-07 22:32:00,51.6,39.3,30.18,NE,45,0.0,0.0,63,0.00,,,0.00,WUHU216HW,2013-03-08 03:32:00,
2013-03-07 22:37:00,51.6,38.9,30.18,NE,45,0.0,0.0,62,0.00,,,0.00,WUHU216HW,2013-03-08 03:37:00,
2013-03-07 22:42:00,51.6,38.9,30.18,NE,45,0.0,0.0,62,0.00,,,0.00,WUHU216HW,2013-03-08 03:42:00,
2013-03-07 22:47:00,51.4,38.7,30.18,NE,45,0.0,0.0,62,0.00,,,0.00,WUHU216HW,2013-03-08 03:47:00,
2013-03-07 22:52:00,51.0,38.4,30.18,NE,45,0.0,0.0,62,0.00,,,0.00,WUHU216HW,2013-03-08 03:52:00,
2013-03-07 22:57:00,50.7,38.3,30.18,NE,45,0.0,0.0,62,0.00,,,0.00,WUHU216HW,2013-03-08 03:57:00,
2013-03-07 23:02:00,50.5,37.9,30.17,NE,45,0.0,0.0,62,0.00,,,0.00,WUHU216HW,2013-03-08 04:02:00,
2013-03-07 23:07:00,50.1,37.6,30.17,NE,45,0.0,0.0,62,0.00,,,0.00,WUHU216HW,2013-03-08 04:07:00,
2013-03-07 23:12:00,49.8,37.2,30.18,NE,45,0.0,0.0,62,0.00,,,0.00,WUHU216HW,2013-03-08 04:12:00,
2013-03-07 23:17:00,49.4,37.3,30.18,NE,45,0.0,0.0,63,0.00,,,0.00,WUHU216HW,2013-03-08 04:17:00,
2013-03-07 23:22:00,49.1,37.0,30.18,NE,45,0.0,0.0,63,0.00,,,0.00,WUHU216HW,2013-03-08 04:22:00,
2013-03-07 23:27:00,48.9,36.8,30.17,NE,45,0.0,0.0,63,0.00,,,0.00,WUHU216HW,2013-03-08 04:27:00,
2013-03-07 23:32:00,48.5,36.8,30.17,NE,45,0.0,0.0,64,0.00,,,0.00,WUHU216HW,2013-03-08 04:32:00,
2013-03-07 23:37:00,48.2,36.1,30.17,NE,45,0.0,0.0,63,0.00,,,0.00,WUHU216HW,2013-03-08 04:37:00,
2013-03-07 23:42:00,48.0,36.3,30.17,NE,45,0.0,0.0,64,0.00,,,0.00,WUHU216HW,2013-03-08 04:42:00,
2013-03-07 23:47:00,47.8,36.2,30.17,NE,45,0.0,0.0,64,0.00,,,0.00,WUHU216HW,2013-03-08 04:47:00,
2013-03-07 23:52:00,47.8,36.2,30.17,NE,45,0.0,0.0,64,0.00,,,0.00,WUHU216HW,2013-03-08 04:52:00,
2013-03-07 23:57:00,47.4,35.8,30.16,NE,45,0.0,0.0,64,0.00,,,0.00,WUHU216HW,2013-03-08 04:57:00,